Latest Coastal Weather Observations for Croker Island Airport

IDD60701

Issued at 12:25 pm CST Monday 21 April 2014 (issued every 10 minutes, with the page automatically refreshed every 10 minutes)

About coastal observations | Map of coastal stations | Coastal observations for NT | Marine services | Other Formats
Station Details ID: 014308 Name: CROKER ISLAND AIRPORT Lat: -11.16 Lon: 132.48 Height: 9.2 m
Data from the previous 72 hours. | See also: Recent months for locations in Northern Territory
Date/Time
CST
Temp

°C
Wind Pressure Rain
since 9am
mm
Weather Cloud Vis
km
Sea
Height
m
Swell
Dir
 
Speed
knots
Gust
knots
hPa Trend Height
m
Period
s
Dir
21/12:00pm 30.1 E 12 19 1009.3 - 0.2 - - - - - - -
21/11:30am 29.7 ESE 12 17 1009.9 - 0.2 - - - - - - -
21/11:00am 30.7 E 13 19 1010.4 - 0.2 - - - - - - -
21/10:30am 28.9 ESE 14 21 1010.5 - 0.0 - - - - - - -
21/10:00am 29.2 E 13 20 1010.7 - 0.0 - - - - - - -
21/09:30am 29.0 E 12 19 1010.3 - 0.0 - - - - - - -
21/09:00am 28.6 E 14 21 1010.0 - 0.2 - - - - - - -
21/08:30am 28.3 E 13 18 1009.8 - 0.2 - - - - - - -
21/08:00am 27.5 E 7 13 1009.7 - 0.2 - - - - - - -
21/07:30am 25.7 ESE 6 9 1009.5 - 0.2 - - - - - - -
21/07:00am 24.9 ESE 5 7 1009.3 - 0.2 - - - - - - -
21/06:30am 24.7 SE 5 6 1008.9 - 0.2 - - - - - - -
21/06:00am 24.9 SE 5 7 1008.6 - 0.2 - - - - - - -
21/05:30am 24.9 SE 5 7 1008.5 - 0.2 - - - - - - -
21/05:00am 25.0 SE 4 6 1008.6 - 0.2 - - - - - - -
21/04:30am 25.2 SE 5 8 1008.6 - 0.2 - - - - - - -
21/04:00am 25.4 SE 7 10 1008.6 - 0.2 - - - - - - -
21/03:30am 25.4 SE 6 11 1008.4 - 0.2 - - - - - - -
21/03:00am 25.6 SE 8 12 1008.3 - 0.2 - - - - - - -
21/02:30am 25.8 SE 7 11 1008.5 - 0.2 - - - - - - -
21/02:00am 25.9 SE 7 10 1008.8 - 0.2 - - - - - - -
21/01:30am 25.7 SE 5 7 1008.9 - 0.2 - - - - - - -
21/01:00am 25.5 ESE 5 6 1009.3 - 0.2 - - - - - - -
21/12:30am 25.7 ESE 5 7 1009.5 - 0.2 - - - - - - -
21/12:00am 25.5 SE 5 7 1009.5 - 0.2 - - - - - - -
 
Date/Time
CST
Temp

°C
Wind Pressure Rain
since 9am
mm
Weather Cloud Vis
km
Sea
Height
m
Swell
Dir
 
Speed
knots
Gust
knots
hPa Trend Height
m
Period
s
Dir
20/11:30pm 25.7 SE 5 6 1009.7 - 0.2 - - - - - - -
20/11:00pm 26.1 SE 5 7 1009.8 - 0.2 - - - - - - -
20/10:30pm 26.5 SE 6 8 1010.0 - 0.2 - - - - - - -
20/10:00pm 26.7 ESE 6 9 1010.3 - 0.2 - - - - - - -
20/09:30pm 26.4 E 5 7 1010.2 - 0.2 - - - - - - -
20/09:00pm 26.4 ESE 6 11 1010.2 - 0.2 - - - - - - -
20/08:30pm 26.2 ESE 4 5 1010.0 - 0.2 - - - - - - -
20/08:00pm 26.6 E 10 21 1009.8 - 0.2 - - - - - - -
20/07:30pm 28.6 E 10 14 1009.0 - 0.0 - - - - - - -
20/07:00pm 28.3 E 8 13 1009.0 - 0.0 - - - - - - -
20/06:30pm 28.6 E 9 14 1008.6 - 0.0 - - - - - - -
20/06:00pm 29.3 E 8 14 1008.3 - 0.0 - - - - - - -
20/05:30pm 29.9 E 10 16 1007.9 - 0.0 - - - - - - -
20/05:00pm 30.2 E 12 23 1007.7 - 0.0 - - - - - - -
20/04:30pm 30.5 E 13 19 1007.4 - 0.0 - - - - - - -
20/04:00pm 30.6 E 14 21 1007.5 - 0.0 - - - - - - -
20/03:30pm 30.8 ESE 14 21 1007.2 - 0.0 - - - - - - -
20/03:00pm 31.1 E 13 20 1007.5 - 0.0 - - - - - - -
20/02:30pm 31.1 E 13 20 1007.6 - 0.0 - - - - - - -
20/02:00pm 31.0 E 13 19 1008.0 - 0.0 - - - - - - -
20/01:30pm 29.8 E 12 19 1008.2 - 0.0 - - - - - - -
20/01:00pm 30.9 E 13 20 1008.8 - 0.0 - - - - - - -
20/12:30pm 30.7 E 13 19 1009.1 - 0.0 - - - - - - -
20/12:00pm 30.4 E 13 21 1009.6 - 0.0 - - - - - - -
20/11:30am 30.6 E 12 21 1009.8 - 0.0 - - - - - - -
20/11:00am 30.1 E 13 19 1010.2 - 0.0 - - - - - - -
20/10:30am 29.4 ESE 13 20 1010.4 - 0.0 - - - - - - -
20/10:00am 29.5 E 12 19 1010.6 - 0.0 - - - - - - -
20/09:30am 29.2 ESE 10 15 1010.5 - 0.0 - - - - - - -
20/09:00am 28.7 ESE 9 15 1010.1 - 1.8 - - - - - - -
20/08:30am 28.0 ESE 9 13 1009.9 - 1.8 - - - - - - -
20/08:00am 27.0 ESE 7 10 1009.9 - 1.8 - - - - - - -
20/07:30am 25.2 SE 5 8 1009.6 - 1.8 - - - - - - -
20/07:00am 24.2 SE 5 7 1009.3 - 1.8 - - - - - - -
20/06:30am 24.0 SE 5 6 1008.8 - 1.8 - - - - - - -
20/06:00am 24.0 SE 4 6 1008.4 - 1.8 - - - - - - -
20/05:30am 24.0 SE 5 7 1008.2 - 1.8 - - - - - - -
20/05:00am 23.9 SE 4 6 1008.3 - 1.8 - - - - - - -
20/04:30am 24.0 ESE 4 5 1008.1 - 1.8 - - - - - - -
20/04:00am 24.0 SE 4 5 1008.5 - 1.8 - - - - - - -
20/03:30am 23.9 SE 4 5 1008.4 - 1.8 - - - - - - -
20/03:00am 23.9 SE 4 6 1008.4 - 1.8 - - - - - - -
20/02:30am 23.8 SE 4 6 1008.3 - 1.8 - - - - - - -
20/02:00am 23.9 SE 5 8 1008.7 - 1.8 - - - - - - -
20/01:30am 24.1 SE 4 5 1009.0 - 1.8 - - - - - - -
20/01:00am 24.3 SE 5 7 1009.3 - 1.8 - - - - - - -
20/12:30am 24.6 SE 5 7 1009.5 - 1.8 - - - - - - -
20/12:00am 25.1 SE 6 10 1009.7 - 1.8 - - - - - - -
 
Date/Time
CST
Temp

°C
Wind Pressure Rain
since 9am
mm
Weather Cloud Vis
km
Sea
Height
m
Swell
Dir
 
Speed
knots
Gust
knots
hPa Trend Height
m
Period
s
Dir
19/11:30pm 25.4 SE 7 11 1010.1 - 1.8 - - - - - - -
19/11:00pm 25.7 SE 5 9 1010.5 - 1.8 - - - - - - -
19/10:30pm 25.1 ESE 5 8 1010.5 - 1.8 - - - - - - -
19/10:00pm 24.6 E 6 11 1010.8 - 1.8 - - - - - - -
19/09:30pm 23.6 E 11 18 1010.8 - 1.8 - - - - - - -
19/09:00pm 24.8 E 10 16 1010.8 - 1.8 Recent precip. - - - - - -
19/08:30pm 24.5 ESE 9 14 1010.7 - 1.6 - - - - - - -
19/08:00pm 24.8 SE 8 12 1010.5 - 1.2 - - - - - - -
19/07:30pm 25.5 ESE 12 19 1009.9 - 1.2 - - - - - - -
19/07:00pm 27.3 E 8 13 1009.4 - 0.8 - - - - - - -
19/06:30pm 27.5 E 9 15 1009.1 - 0.8 - - - - - - -
19/06:00pm 28.1 E 11 17 1008.9 - 0.8 - - - - - - -
19/05:30pm 28.3 E 11 19 1008.6 - 0.8 - - - - - - -
19/05:00pm 28.7 E 14 20 1008.5 - 0.8 - - - - - - -
19/04:30pm 29.1 E 13 20 1008.0 - 0.8 - - - - - - -
19/04:00pm 28.7 ENE 13 17 1007.9 - 0.8 - - - - - - -
19/03:30pm 27.4 ENE 11 17 1007.9 - 0.8 - - - - - - -
19/03:00pm 27.8 E 14 21 1007.8 - 0.8 Recent precip. - - - - - -
19/02:30pm 28.4 E 13 19 1008.0 - 0.8 - - - - - - -
19/02:00pm 30.3 E 13 20 1008.4 - 0.0 - - - - - - -
19/01:30pm 28.5 E 14 22 1008.8 - 0.0 - - - - - - -
19/01:19pm 28.4 E 15 26 1008.9 - 0.0 - - - - - - -
19/01:00pm 31.0 E 9 14 1009.0 - 0.0 - - - - - - -
19/12:30pm 31.0 E 13 19 1009.3 - 0.0 - - - - - - -
19/12:00pm 30.5 E 13 18 1009.8 - 0.0 - - - - - - -
19/11:30am 31.0 E 13 17 1010.3 - 0.0 - - - - - - -
19/11:00am 30.9 E 12 18 1010.8 - 0.0 - - - - - - -
19/10:30am 30.4 E 11 16 1010.9 - 0.0 - - - - - - -
19/10:00am 29.8 E 10 17 1011.1 - 0.0 - - - - - - -
19/09:30am 29.3 E 9 13 1011.0 - 0.0 - - - - - - -
19/09:00am 29.2 E 7 12 1011.0 - 12.2 Recent precip. - - - - - -
19/08:30am 28.4 ESE 6 9 1010.9 - 12.2 - - - - - - -
19/08:00am 26.7 SE 3 5 1010.8 - 12.0 - - - - - - -
19/07:30am 25.0 SE 3 6 1010.6 - 12.0 - - - - - - -
19/07:00am 24.6 SE 4 5 1010.5 - 12.0 - - - - - - -
19/06:30am 24.6 SE 3 5 1010.1 - 12.0 - - - - - - -
19/06:00am 24.7 ESE 3 4 1009.9 - 12.0 - - - - - - -
19/05:30am 24.9 SE 5 7 1009.8 - 12.0 - - - - - - -
19/05:00am 25.1 SE 6 10 1010.0 - 12.0 - - - - - - -
19/04:30am 24.8 SE 6 10 1009.9 - 12.0 - - - - - - -
19/04:00am 24.6 SE 4 8 1009.9 - 12.0 - - - - - - -
19/03:30am 24.8 ESE 4 6 1009.6 - 12.0 - - - - - - -
19/03:00am 24.9 SE 5 7 1009.9 - 12.0 - - - - - - -
19/02:30am 25.1 SE 4 7 1010.1 - 12.0 - - - - - - -
19/02:00am 25.3 SE 5 8 1010.3 - 12.0 - - - - - - -
19/01:30am 25.5 SE 5 8 1010.3 - 12.0 - - - - - - -
19/01:00am 25.2 SSE 5 8 1010.6 - 12.0 - - - - - - -
19/12:30am 25.4 SSE 5 8 1010.7 - 12.0 - - - - - - -
19/12:00am 25.3 SE 3 5 1010.8 - 12.0 - - - - - - -
 
Date/Time
CST
Temp

°C
Wind Pressure Rain
since 9am
mm
Weather Cloud Vis
km
Sea
Height
m
Swell
Dir
 
Speed
knots
Gust
knots
hPa Trend Height
m
Period
s
Dir
18/11:30pm 25.4 SE 3 5 1011.1 - 12.0 - - - - - - -
18/11:00pm 25.8 ESE 5 8 1011.3 - 12.0 - - - - - - -
18/10:30pm 25.9 ESE 6 10 1011.3 - 12.0 - - - - - - -
18/10:00pm 25.8 ESE 6 10 1011.5 - 12.0 - - - - - - -
18/09:30pm 25.7 E 5 9 1011.3 - 12.0 - - - - - - -
18/09:00pm 25.6 ESE 2 5 1011.2 - 12.0 Recent precip. - - - - - -
18/08:30pm 25.5 E 2 3 1011.1 - 12.0 - - - - - - -
18/08:00pm 25.6 ESE 4 6 1011.2 - 11.8 - - - - - - -
18/07:30pm 25.5 E 4 6 1010.9 - 11.8 - - - - - - -
18/07:00pm 25.2 E 7 11 1010.6 - 11.8 - - - - - - -
18/06:30pm 26.3 ESE 7 13 1010.0 - 11.4 - - - - - - -
18/06:00pm 27.2 SE 7 12 1009.5 - 11.4 - - - - - - -
18/05:30pm 27.7 E 7 13 1009.1 - 11.4 - - - - - - -
18/05:00pm 28.1 E 7 11 1008.6 - 11.4 - - - - - - -
18/04:30pm 27.5 E 6 9 1008.3 - 11.4 - - - - - - -
18/04:00pm 26.7 E 7 10 1008.5 - 11.4 - - - - - - -
18/03:30pm 26.1 E 5 8 1008.3 - 11.4 - - - - - - -
18/03:00pm 25.9 E 6 9 1008.5 - 11.4 Recent precip. - - - - - -
18/02:30pm 25.4 E 3 6 1009.2 - 11.4 - - - - - - -
18/02:00pm 25.3 ENE 3 5 1009.8 - 11.2 - - - - - - -
18/01:30pm 25.2 NNE 4 6 1010.0 - 11.0 - - - - - - -
18/01:00pm 24.6 NE 4 7 1010.7 - 10.8 - - - - - - -
18/12:30pm 24.4 ENE 6 8 1011.1 - 10.8 - - - - - - -

Other Formats:

Comma delimited format used in spreadsheet applications
http://www.bom.gov.au/fwo/IDD60701/IDD60701.94108.axf

JavaScript Object Notation format (JSON) in row-major order
http://www.bom.gov.au/fwo/IDD60701/IDD60701.94108.json